sensor_id;sensor_type;location;lat;lon;timestamp;temperature;humidity
71942;DHT22;59997;53.300;-6.260;2022-11-20T00:01:39;7.65;88.22
71942;DHT22;59997;53.300;-6.260;2022-11-20T00:04:04;7.62;88.38
71942;DHT22;59997;53.300;-6.260;2022-11-20T00:06:30;7.68;88.05
71942;DHT22;59997;53.300;-6.260;2022-11-20T00:08:57;7.67;87.47
71942;DHT22;59997;53.300;-6.260;2022-11-20T00:11:24;7.58;87.37
71942;DHT22;59997;53.300;-6.260;2022-11-20T00:13:52;7.61;86.99
71942;DHT22;59997;53.300;-6.260;2022-11-20T00:16:20;7.74;85.94
71942;DHT22;59997;53.300;-6.260;2022-11-20T00:18:46;7.75;85.65
71942;DHT22;59997;53.300;-6.260;2022-11-20T00:21:14;7.75;85.49
71942;DHT22;59997;53.300;-6.260;2022-11-20T00:23:40;7.81;85.51
71942;DHT22;59997;53.300;-6.260;2022-11-20T00:26:09;7.74;85.62
71942;DHT22;59997;53.300;-6.260;2022-11-20T00:28:35;7.75;85.56
71942;DHT22;59997;53.300;-6.260;2022-11-20T00:31:06;7.74;85.31
71942;DHT22;59997;53.300;-6.260;2022-11-20T00:33:31;7.61;85.77
71942;DHT22;59997;53.300;-6.260;2022-11-20T00:36:01;7.55;85.82
71942;DHT22;59997;53.300;-6.260;2022-11-20T00:38:27;7.46;86.24
71942;DHT22;59997;53.300;-6.260;2022-11-20T00:40:57;7.35;86.58
71942;DHT22;59997;53.300;-6.260;2022-11-20T00:43:24;7.26;86.93
71942;DHT22;59997;53.300;-6.260;2022-11-20T00:45:50;7.26;87.06
71942;DHT22;59997;53.300;-6.260;2022-11-20T00:48:16;7.28;86.95
71942;DHT22;59997;53.300;-6.260;2022-11-20T00:50:41;7.27;87.24
71942;DHT22;59997;53.300;-6.260;2022-11-20T00:53:07;7.16;87.38
71942;DHT22;59997;53.300;-6.260;2022-11-20T00:55:32;7.10;87.55
71942;DHT22;59997;53.300;-6.260;2022-11-20T00:57:58;7.06;87.68
71942;DHT22;59997;53.300;-6.260;2022-11-20T01:00:23;6.98;87.97
71942;DHT22;59997;53.300;-6.260;2022-11-20T01:02:49;6.93;88.15
71942;DHT22;59997;53.300;-6.260;2022-11-20T01:05:14;6.96;88.15
71942;DHT22;59997;53.300;-6.260;2022-11-20T01:07:39;7.00;88.05
71942;DHT22;59997;53.300;-6.260;2022-11-20T01:10:05;6.89;88.32
71942;DHT22;59997;53.300;-6.260;2022-11-20T01:12:31;6.87;88.41
71942;DHT22;59997;53.300;-6.260;2022-11-20T01:14:56;6.84;88.36
71942;DHT22;59997;53.300;-6.260;2022-11-20T01:17:22;6.85;88.46
71942;DHT22;59997;53.300;-6.260;2022-11-20T01:19:50;6.84;88.50
71942;DHT22;59997;53.300;-6.260;2022-11-20T01:22:16;6.99;88.24
71942;DHT22;59997;53.300;-6.260;2022-11-20T01:24:41;7.06;87.94
71942;DHT22;59997;53.300;-6.260;2022-11-20T01:27:07;7.03;87.81
71942;DHT22;59997;53.300;-6.260;2022-11-20T01:29:32;7.00;87.81
71942;DHT22;59997;53.300;-6.260;2022-11-20T01:31:58;7.06;87.69
71942;DHT22;59997;53.300;-6.260;2022-11-20T01:34:24;7.06;87.69
71942;DHT22;59997;53.300;-6.260;2022-11-20T01:36:51;7.13;87.24
71942;DHT22;59997;53.300;-6.260;2022-11-20T01:39:20;7.12;87.17
71942;DHT22;59997;53.300;-6.260;2022-11-20T01:41:47;7.16;87.07
71942;DHT22;59997;53.300;-6.260;2022-11-20T01:44:56;7.16;86.96
71942;DHT22;59997;53.300;-6.260;2022-11-20T01:50:04;6.91;87.37
71942;DHT22;59997;53.300;-6.260;2022-11-20T01:52:36;6.93;87.36
71942;DHT22;59997;53.300;-6.260;2022-11-20T01:55:09;7.06;87.21
71942;DHT22;59997;53.300;-6.260;2022-11-20T01:57:35;7.07;86.97
71942;DHT22;59997;53.300;-6.260;2022-11-20T02:00:06;6.98;86.89
71942;DHT22;59997;53.300;-6.260;2022-11-20T02:02:33;7.02;86.95
71942;DHT22;59997;53.300;-6.260;2022-11-20T02:05:07;7.03;86.91
71942;DHT22;59997;53.300;-6.260;2022-11-20T02:07:35;7.13;86.57
71942;DHT22;59997;53.300;-6.260;2022-11-20T02:10:01;7.09;86.44
71942;DHT22;59997;53.300;-6.260;2022-11-20T02:12:27;7.03;86.52
71942;DHT22;59997;53.300;-6.260;2022-11-20T02:15:12;7.06;86.63
71942;DHT22;59997;53.300;-6.260;2022-11-20T02:17:38;7.19;86.28
71942;DHT22;59997;53.300;-6.260;2022-11-20T02:20:04;7.22;86.05
71942;DHT22;59997;53.300;-6.260;2022-11-20T02:22:35;7.17;86.03
71942;DHT22;59997;53.300;-6.260;2022-11-20T02:25:04;7.19;86.04
71942;DHT22;59997;53.300;-6.260;2022-11-20T02:27:31;7.27;85.97
71942;DHT22;59997;53.300;-6.260;2022-11-20T02:30:02;7.35;85.62
71942;DHT22;59997;53.300;-6.260;2022-11-20T02:32:30;7.40;85.60
71942;DHT22;59997;53.300;-6.260;2022-11-20T02:34:56;7.33;85.62
71942;DHT22;59997;53.300;-6.260;2022-11-20T02:37:22;7.30;85.54
71942;DHT22;59997;53.300;-6.260;2022-11-20T02:39:50;7.33;85.18
71942;DHT22;59997;53.300;-6.260;2022-11-20T02:42:17;7.24;85.06
71942;DHT22;59997;53.300;-6.260;2022-11-20T02:44:43;7.23;84.52
71942;DHT22;59997;53.300;-6.260;2022-11-20T02:47:09;7.09;84.79
71942;DHT22;59997;53.300;-6.260;2022-11-20T02:49:34;6.95;85.20
71942;DHT22;59997;53.300;-6.260;2022-11-20T02:51:59;6.88;85.52
71942;DHT22;59997;53.300;-6.260;2022-11-20T02:54:25;6.91;85.47
71942;DHT22;59997;53.300;-6.260;2022-11-20T02:56:51;6.85;85.38
71942;DHT22;59997;53.300;-6.260;2022-11-20T02:59:16;6.72;85.59
71942;DHT22;59997;53.300;-6.260;2022-11-20T03:01:42;6.72;85.43
71942;DHT22;59997;53.300;-6.260;2022-11-20T03:04:07;6.68;85.49
71942;DHT22;59997;53.300;-6.260;2022-11-20T03:06:34;6.57;85.74
71942;DHT22;59997;53.300;-6.260;2022-11-20T03:08:59;6.63;85.44
71942;DHT22;59997;53.300;-6.260;2022-11-20T03:11:25;6.54;85.60
71942;DHT22;59997;53.300;-6.260;2022-11-20T03:13:50;6.33;85.80
71942;DHT22;59997;53.300;-6.260;2022-11-20T03:16:18;6.36;85.84
71942;DHT22;59997;53.300;-6.260;2022-11-20T03:18:44;6.34;85.67
71942;DHT22;59997;53.300;-6.260;2022-11-20T03:21:11;6.44;85.36
71942;DHT22;59997;53.300;-6.260;2022-11-20T03:23:38;6.44;85.36
71942;DHT22;59997;53.300;-6.260;2022-11-20T03:26:17;6.36;85.33
71942;DHT22;59997;53.300;-6.260;2022-11-20T03:28:49;6.33;85.13
71942;DHT22;59997;53.300;-6.260;2022-11-20T03:31:16;6.25;85.22
71942;DHT22;59997;53.300;-6.260;2022-11-20T03:33:43;6.19;85.50
71942;DHT22;59997;53.300;-6.260;2022-11-20T03:36:10;6.25;85.34
71942;DHT22;59997;53.300;-6.260;2022-11-20T03:38:37;6.36;85.07
71942;DHT22;59997;53.300;-6.260;2022-11-20T03:41:08;6.30;85.19
71942;DHT22;59997;53.300;-6.260;2022-11-20T03:43:34;6.23;85.27
71942;DHT22;59997;53.300;-6.260;2022-11-20T03:45:59;6.19;85.56
71942;DHT22;59997;53.300;-6.260;2022-11-20T03:48:25;6.18;85.46
71942;DHT22;59997;53.300;-6.260;2022-11-20T03:50:52;6.16;85.53
71942;DHT22;59997;53.300;-6.260;2022-11-20T03:53:18;6.13;85.51
71942;DHT22;59997;53.300;-6.260;2022-11-20T03:55:45;6.18;85.41
71942;DHT22;59997;53.300;-6.260;2022-11-20T03:58:15;6.23;85.29
71942;DHT22;59997;53.300;-6.260;2022-11-20T04:00:40;6.11;85.64
71942;DHT22;59997;53.300;-6.260;2022-11-20T04:03:05;6.11;85.79
71942;DHT22;59997;53.300;-6.260;2022-11-20T04:05:33;6.02;85.82
71942;DHT22;59997;53.300;-6.260;2022-11-20T04:07:58;6.08;85.95
71942;DHT22;59997;53.300;-6.260;2022-11-20T04:10:24;6.02;86.08
71942;DHT22;59997;53.300;-6.260;2022-11-20T04:12:49;5.98;86.28
71942;DHT22;59997;53.300;-6.260;2022-11-20T04:15:14;5.93;86.38
71942;DHT22;59997;53.300;-6.260;2022-11-20T04:17:40;5.99;86.26
71942;DHT22;59997;53.300;-6.260;2022-11-20T04:20:06;6.06;86.01
71942;DHT22;59997;53.300;-6.260;2022-11-20T04:22:32;6.02;85.93
71942;DHT22;59997;53.300;-6.260;2022-11-20T04:24:57;5.99;86.03
71942;DHT22;59997;53.300;-6.260;2022-11-20T04:27:23;5.99;86.11
71942;DHT22;59997;53.300;-6.260;2022-11-20T04:29:48;6.11;85.83
71942;DHT22;59997;53.300;-6.260;2022-11-20T04:32:13;6.16;85.82
71942;DHT22;59997;53.300;-6.260;2022-11-20T04:34:39;6.23;85.79
71942;DHT22;59997;53.300;-6.260;2022-11-20T04:37:04;6.22;85.88
71942;DHT22;59997;53.300;-6.260;2022-11-20T04:39:30;6.30;85.89
71942;DHT22;59997;53.300;-6.260;2022-11-20T04:41:56;6.44;85.75
71942;DHT22;59997;53.300;-6.260;2022-11-20T04:44:40;6.50;85.12
71942;DHT22;59997;53.300;-6.260;2022-11-20T04:47:06;6.40;85.61
71942;DHT22;59997;53.300;-6.260;2022-11-20T04:49:31;6.33;85.89
71942;DHT22;59997;53.300;-6.260;2022-11-20T04:51:57;6.23;86.24
71942;DHT22;59997;53.300;-6.260;2022-11-20T04:54:23;6.22;86.21
71942;DHT22;59997;53.300;-6.260;2022-11-20T04:56:49;6.22;86.16
71942;DHT22;59997;53.300;-6.260;2022-11-20T04:59:15;6.22;86.11
71942;DHT22;59997;53.300;-6.260;2022-11-20T05:01:41;6.23;85.86
71942;DHT22;59997;53.300;-6.260;2022-11-20T05:04:06;6.26;85.61
71942;DHT22;59997;53.300;-6.260;2022-11-20T05:06:32;6.26;85.48
71942;DHT22;59997;53.300;-6.260;2022-11-20T05:08:58;6.37;85.01
71942;DHT22;59997;53.300;-6.260;2022-11-20T05:11:23;6.33;85.00
71942;DHT22;59997;53.300;-6.260;2022-11-20T05:13:50;6.23;85.30
71942;DHT22;59997;53.300;-6.260;2022-11-20T05:16:22;6.19;85.56
71942;DHT22;59997;53.300;-6.260;2022-11-20T05:18:48;6.16;85.59
71942;DHT22;59997;53.300;-6.260;2022-11-20T05:21:15;6.16;85.65
71942;DHT22;59997;53.300;-6.260;2022-11-20T05:23:41;6.12;85.76
71942;DHT22;59997;53.300;-6.260;2022-11-20T05:26:11;6.01;86.06
71942;DHT22;59997;53.300;-6.260;2022-11-20T05:28:37;6.08;85.77
71942;DHT22;59997;53.300;-6.260;2022-11-20T05:31:11;6.13;85.47
71942;DHT22;59997;53.300;-6.260;2022-11-20T05:33:40;6.16;85.35
71942;DHT22;59997;53.300;-6.260;2022-11-20T05:36:07;6.19;85.04
71942;DHT22;59997;53.300;-6.260;2022-11-20T05:38:33;6.12;85.30
71942;DHT22;59997;53.300;-6.260;2022-11-20T05:41:06;6.12;84.96
71942;DHT22;59997;53.300;-6.260;2022-11-20T05:43:37;6.02;85.25
71942;DHT22;59997;53.300;-6.260;2022-11-20T05:46:04;5.97;85.16
71942;DHT22;59997;53.300;-6.260;2022-11-20T05:48:30;6.04;85.03
71942;DHT22;59997;53.300;-6.260;2022-11-20T05:51:00;6.08;84.88
71942;DHT22;59997;53.300;-6.260;2022-11-20T05:53:26;6.05;84.91
71942;DHT22;59997;53.300;-6.260;2022-11-20T05:56:02;6.06;84.83
71942;DHT22;59997;53.300;-6.260;2022-11-20T05:58:29;6.19;84.69
71942;DHT22;59997;53.300;-6.260;2022-11-20T06:00:54;6.13;84.71
71942;DHT22;59997;53.300;-6.260;2022-11-20T06:03:20;6.12;84.81
71942;DHT22;59997;53.300;-6.260;2022-11-20T06:05:46;6.16;84.87
71942;DHT22;59997;53.300;-6.260;2022-11-20T06:08:12;6.01;85.06
71942;DHT22;59997;53.300;-6.260;2022-11-20T06:10:37;6.05;85.07
71942;DHT22;59997;53.300;-6.260;2022-11-20T06:13:02;6.09;84.84
71942;DHT22;59997;53.300;-6.260;2022-11-20T06:15:28;6.08;84.70
71942;DHT22;59997;53.300;-6.260;2022-11-20T06:17:54;6.15;84.56
71942;DHT22;59997;53.300;-6.260;2022-11-20T06:20:23;6.28;84.00
71942;DHT22;59997;53.300;-6.260;2022-11-20T06:22:48;6.28;83.85
71942;DHT22;59997;53.300;-6.260;2022-11-20T06:25:14;6.29;83.75
71942;DHT22;59997;53.300;-6.260;2022-11-20T06:27:39;6.29;83.55
71942;DHT22;59997;53.300;-6.260;2022-11-20T06:30:05;6.25;83.49
71942;DHT22;59997;53.300;-6.260;2022-11-20T06:32:31;6.25;83.53
71942;DHT22;59997;53.300;-6.260;2022-11-20T06:34:56;6.40;82.73
71942;DHT22;59997;53.300;-6.260;2022-11-20T06:37:22;6.48;82.39
71942;DHT22;59997;53.300;-6.260;2022-11-20T06:39:47;6.50;82.09
71942;DHT22;59997;53.300;-6.260;2022-11-20T06:42:12;6.32;82.61
71942;DHT22;59997;53.300;-6.260;2022-11-20T06:44:38;6.33;82.87
71942;DHT22;59997;53.300;-6.260;2022-11-20T06:47:03;6.30;82.86
71942;DHT22;59997;53.300;-6.260;2022-11-20T06:49:29;6.47;82.50
71942;DHT22;59997;53.300;-6.260;2022-11-20T06:51:54;6.46;82.35
71942;DHT22;59997;53.300;-6.260;2022-11-20T06:54:19;6.47;82.52
71942;DHT22;59997;53.300;-6.260;2022-11-20T06:56:48;6.50;82.49
71942;DHT22;59997;53.300;-6.260;2022-11-20T06:59:14;6.53;82.56
71942;DHT22;59997;53.300;-6.260;2022-11-20T07:01:39;6.54;82.35
71942;DHT22;59997;53.300;-6.260;2022-11-20T07:04:05;6.47;82.63
71942;DHT22;59997;53.300;-6.260;2022-11-20T07:06:31;6.46;82.59
71942;DHT22;59997;53.300;-6.260;2022-11-20T07:08:57;6.44;82.64
71942;DHT22;59997;53.300;-6.260;2022-11-20T07:11:23;6.36;83.00
71942;DHT22;59997;53.300;-6.260;2022-11-20T07:13:49;6.37;83.03
71942;DHT22;59997;53.300;-6.260;2022-11-20T07:16:14;6.28;83.25
71942;DHT22;59997;53.300;-6.260;2022-11-20T07:18:40;6.32;83.37
71942;DHT22;59997;53.300;-6.260;2022-11-20T07:21:07;6.32;83.16
71942;DHT22;59997;53.300;-6.260;2022-11-20T07:23:33;6.33;83.25
71942;DHT22;59997;53.300;-6.260;2022-11-20T07:26:04;6.41;82.94
71942;DHT22;59997;53.300;-6.260;2022-11-20T07:28:30;6.51;82.65
71942;DHT22;59997;53.300;-6.260;2022-11-20T07:30:55;6.57;82.36
71942;DHT22;59997;53.300;-6.260;2022-11-20T07:33:20;6.58;82.16
71942;DHT22;59997;53.300;-6.260;2022-11-20T07:35:46;6.60;82.16
71942;DHT22;59997;53.300;-6.260;2022-11-20T07:38:11;6.50;82.51
71942;DHT22;59997;53.300;-6.260;2022-11-20T07:40:37;6.67;82.18
71942;DHT22;59997;53.300;-6.260;2022-11-20T07:43:02;6.80;81.81
71942;DHT22;59997;53.300;-6.260;2022-11-20T07:45:28;6.75;81.87
71942;DHT22;59997;53.300;-6.260;2022-11-20T07:47:54;6.63;82.31
71942;DHT22;59997;53.300;-6.260;2022-11-20T07:50:20;6.67;82.18
71942;DHT22;59997;53.300;-6.260;2022-11-20T07:52:46;6.64;82.36
71942;DHT22;59997;53.300;-6.260;2022-11-20T07:55:12;6.68;82.17
71942;DHT22;59997;53.300;-6.260;2022-11-20T07:57:38;6.72;81.84
71942;DHT22;59997;53.300;-6.260;2022-11-20T08:00:05;6.95;81.12
71942;DHT22;59997;53.300;-6.260;2022-11-20T08:02:30;7.02;80.51
71942;DHT22;59997;53.300;-6.260;2022-11-20T08:04:56;7.06;80.56
71942;DHT22;59997;53.300;-6.260;2022-11-20T08:07:21;7.16;80.50
71942;DHT22;59997;53.300;-6.260;2022-11-20T08:09:47;7.22;80.48
71942;DHT22;59997;53.300;-6.260;2022-11-20T08:12:20;7.17;80.77
71942;DHT22;59997;53.300;-6.260;2022-11-20T08:15:05;7.23;80.71
71942;DHT22;59997;53.300;-6.260;2022-11-20T08:17:31;7.13;81.13
71942;DHT22;59997;53.300;-6.260;2022-11-20T08:19:57;7.28;80.27
71942;DHT22;59997;53.300;-6.260;2022-11-20T08:22:22;7.33;80.35
71942;DHT22;59997;53.300;-6.260;2022-11-20T08:24:48;7.28;80.68
71942;DHT22;59997;53.300;-6.260;2022-11-20T08:27:14;7.31;80.35
71942;DHT22;59997;53.300;-6.260;2022-11-20T08:29:39;7.47;80.02
71942;DHT22;59997;53.300;-6.260;2022-11-20T08:32:05;7.44;80.32
71942;DHT22;59997;53.300;-6.260;2022-11-20T08:34:30;7.65;79.20
71942;DHT22;59997;53.300;-6.260;2022-11-20T08:36:56;7.72;78.95
71942;DHT22;59997;53.300;-6.260;2022-11-20T08:39:22;7.71;78.73
71942;DHT22;59997;53.300;-6.260;2022-11-20T08:41:47;7.69;79.27
71942;DHT22;59997;53.300;-6.260;2022-11-20T08:44:12;7.74;78.63
71942;DHT22;59997;53.300;-6.260;2022-11-20T08:46:40;7.83;78.38
71942;DHT22;59997;53.300;-6.260;2022-11-20T08:49:10;7.87;78.21
71942;DHT22;59997;53.300;-6.260;2022-11-20T08:51:37;7.92;78.49
71942;DHT22;59997;53.300;-6.260;2022-11-20T08:54:03;7.92;78.07
71942;DHT22;59997;53.300;-6.260;2022-11-20T08:56:29;7.94;77.84
71942;DHT22;59997;53.300;-6.260;2022-11-20T08:58:55;7.96;77.94
71942;DHT22;59997;53.300;-6.260;2022-11-20T09:01:21;7.94;77.62
71942;DHT22;59997;53.300;-6.260;2022-11-20T09:03:48;7.86;78.48
71942;DHT22;59997;53.300;-6.260;2022-11-20T09:06:14;7.82;78.39
71942;DHT22;59997;53.300;-6.260;2022-11-20T09:08:39;7.82;77.78
71942;DHT22;59997;53.300;-6.260;2022-11-20T09:11:05;7.85;78.14
71942;DHT22;59997;53.300;-6.260;2022-11-20T09:13:33;7.81;78.39
71942;DHT22;59997;53.300;-6.260;2022-11-20T09:16:09;7.79;78.35
71942;DHT22;59997;53.300;-6.260;2022-11-20T09:18:36;7.67;79.04
71942;DHT22;59997;53.300;-6.260;2022-11-20T09:21:05;7.62;79.25
71942;DHT22;59997;53.300;-6.260;2022-11-20T09:23:32;7.58;79.48
71942;DHT22;59997;53.300;-6.260;2022-11-20T09:26:06;7.58;79.34
71942;DHT22;59997;53.300;-6.260;2022-11-20T09:28:32;7.55;79.46
71942;DHT22;59997;53.300;-6.260;2022-11-20T09:30:58;7.57;79.24
71942;DHT22;59997;53.300;-6.260;2022-11-20T09:33:24;7.57;79.55
71942;DHT22;59997;53.300;-6.260;2022-11-20T09:35:49;7.55;79.49
71942;DHT22;59997;53.300;-6.260;2022-11-20T09:38:14;7.62;79.16
71942;DHT22;59997;53.300;-6.260;2022-11-20T09:41:05;7.59;79.20
71942;DHT22;59997;53.300;-6.260;2022-11-20T09:46:29;7.65;79.06
71942;DHT22;59997;53.300;-6.260;2022-11-20T09:54:34;7.58;79.45
71942;DHT22;59997;53.300;-6.260;2022-11-20T09:57:09;7.57;79.70
71942;DHT22;59997;53.300;-6.260;2022-11-20T09:59:41;7.55;79.93
71942;DHT22;59997;53.300;-6.260;2022-11-20T10:02:29;7.59;79.99
71942;DHT22;59997;53.300;-6.260;2022-11-20T10:10:02;7.68;79.66
71942;DHT22;59997;53.300;-6.260;2022-11-20T10:15:24;7.74;79.82
71942;DHT22;59997;53.300;-6.260;2022-11-20T10:18:09;7.72;80.15
71942;DHT22;59997;53.300;-6.260;2022-11-20T10:26:59;7.69;80.58
71942;DHT22;59997;53.300;-6.260;2022-11-20T10:29:39;7.68;79.89
71942;DHT22;59997;53.300;-6.260;2022-11-20T10:32:11;7.71;79.64
71942;DHT22;59997;53.300;-6.260;2022-11-20T10:34:51;7.69;79.49
71942;DHT22;59997;53.300;-6.260;2022-11-20T10:37:29;7.72;79.37
71942;DHT22;59997;53.300;-6.260;2022-11-20T10:50:25;8.07;79.38
71942;DHT22;59997;53.300;-6.260;2022-11-20T10:55:54;8.72;78.22
71942;DHT22;59997;53.300;-6.260;2022-11-20T10:58:45;8.44;78.28
71942;DHT22;59997;53.300;-6.260;2022-11-20T11:01:18;8.17;79.11
71942;DHT22;59997;53.300;-6.260;2022-11-20T11:03:44;7.87;79.43
71942;DHT22;59997;53.300;-6.260;2022-11-20T11:06:42;9.15;76.52
71942;DHT22;59997;53.300;-6.260;2022-11-20T11:09:15;9.82;73.89
71942;DHT22;59997;53.300;-6.260;2022-11-20T11:11:42;10.19;71.94
71942;DHT22;59997;53.300;-6.260;2022-11-20T11:14:09;10.59;71.43
71942;DHT22;59997;53.300;-6.260;2022-11-20T11:16:35;9.97;70.36
71942;DHT22;59997;53.300;-6.260;2022-11-20T11:19:05;9.30;72.98
71942;DHT22;59997;53.300;-6.260;2022-11-20T11:21:31;8.99;74.53
71942;DHT22;59997;53.300;-6.260;2022-11-20T11:24:03;8.93;74.66
71942;DHT22;59997;53.300;-6.260;2022-11-20T11:26:29;8.70;74.66
71942;DHT22;59997;53.300;-6.260;2022-11-20T11:29:00;8.59;75.36
71942;DHT22;59997;53.300;-6.260;2022-11-20T11:31:28;9.17;74.49
71942;DHT22;59997;53.300;-6.260;2022-11-20T11:34:16;9.60;72.13
71942;DHT22;59997;53.300;-6.260;2022-11-20T11:36:42;9.73;72.32
71942;DHT22;59997;53.300;-6.260;2022-11-20T11:39:18;9.83;71.52
71942;DHT22;59997;53.300;-6.260;2022-11-20T11:41:45;10.11;70.87
71942;DHT22;59997;53.300;-6.260;2022-11-20T11:44:20;10.18;70.54
71942;DHT22;59997;53.300;-6.260;2022-11-20T11:47:24;10.29;70.19
71942;DHT22;59997;53.300;-6.260;2022-11-20T11:55:56;9.82;71.44
71942;DHT22;59997;53.300;-6.260;2022-11-20T12:00:55;8.90;77.26
71942;DHT22;59997;53.300;-6.260;2022-11-20T12:03:29;9.24;75.68
71942;DHT22;59997;53.300;-6.260;2022-11-20T12:06:09;9.55;75.47
71942;DHT22;59997;53.300;-6.260;2022-11-20T12:08:53;10.01;74.00
71942;DHT22;59997;53.300;-6.260;2022-11-20T12:14:14;10.01;72.24
71942;DHT22;59997;53.300;-6.260;2022-11-20T12:16:41;10.00;71.47
71942;DHT22;59997;53.300;-6.260;2022-11-20T12:19:10;10.17;71.28
71942;DHT22;59997;53.300;-6.260;2022-11-20T12:27:10;10.04;69.54
71942;DHT22;59997;53.300;-6.260;2022-11-20T12:30:10;10.29;69.70
71942;DHT22;59997;53.300;-6.260;2022-11-20T12:35:32;10.32;68.98
71942;DHT22;59997;53.300;-6.260;2022-11-20T12:38:34;10.28;69.45
71942;DHT22;59997;53.300;-6.260;2022-11-20T12:44:25;10.07;70.27
71942;DHT22;59997;53.300;-6.260;2022-11-20T12:57:53;9.07;72.35
71942;DHT22;59997;53.300;-6.260;2022-11-20T13:00:21;9.08;73.11
71942;DHT22;59997;53.300;-6.260;2022-11-20T13:03:16;9.10;72.95
71942;DHT22;59997;53.300;-6.260;2022-11-20T13:06:01;9.13;73.58
71942;DHT22;59997;53.300;-6.260;2022-11-20T13:08:36;9.11;74.54
71942;DHT22;59997;53.300;-6.260;2022-11-20T13:14:30;9.20;75.21
71942;DHT22;59997;53.300;-6.260;2022-11-20T13:17:00;9.27;75.01
71942;DHT22;59997;53.300;-6.260;2022-11-20T13:19:29;9.25;75.53
71942;DHT22;59997;53.300;-6.260;2022-11-20T13:21:54;9.25;75.71
71942;DHT22;59997;53.300;-6.260;2022-11-20T13:29:37;9.36;73.54
71942;DHT22;59997;53.300;-6.260;2022-11-20T13:34:37;9.32;73.19
71942;DHT22;59997;53.300;-6.260;2022-11-20T13:37:02;9.32;72.90
71942;DHT22;59997;53.300;-6.260;2022-11-20T13:39:34;9.32;72.48
71942;DHT22;59997;53.300;-6.260;2022-11-20T13:42:02;9.38;71.48
71942;DHT22;59997;53.300;-6.260;2022-11-20T13:45:08;9.41;70.10
71942;DHT22;59997;53.300;-6.260;2022-11-20T13:47:35;9.36;69.65
71942;DHT22;59997;53.300;-6.260;2022-11-20T13:50:04;9.35;68.90
71942;DHT22;59997;53.300;-6.260;2022-11-20T13:55:16;9.28;68.45
71942;DHT22;59997;53.300;-6.260;2022-11-20T14:00:23;9.27;68.39
71942;DHT22;59997;53.300;-6.260;2022-11-20T14:03:13;9.28;67.04
71942;DHT22;59997;53.300;-6.260;2022-11-20T14:05:52;9.30;67.35
71942;DHT22;59997;53.300;-6.260;2022-11-20T14:08:47;9.20;66.84
71942;DHT22;59997;53.300;-6.260;2022-11-20T14:11:22;9.18;67.67
71942;DHT22;59997;53.300;-6.260;2022-11-20T14:13:58;9.08;67.66
71942;DHT22;59997;53.300;-6.260;2022-11-20T14:16:25;8.87;68.28
71942;DHT22;59997;53.300;-6.260;2022-11-20T14:18:52;8.68;68.94
71942;DHT22;59997;53.300;-6.260;2022-11-20T14:21:25;8.61;69.99
71942;DHT22;59997;53.300;-6.260;2022-11-20T14:24:18;8.40;69.59
71942;DHT22;59997;53.300;-6.260;2022-11-20T14:26:44;8.35;70.60
71942;DHT22;59997;53.300;-6.260;2022-11-20T14:29:17;8.34;70.89
71942;DHT22;59997;53.300;-6.260;2022-11-20T14:31:44;8.28;71.67
71942;DHT22;59997;53.300;-6.260;2022-11-20T14:34:19;8.41;71.32
71942;DHT22;59997;53.300;-6.260;2022-11-20T14:36:45;8.37;72.10
71942;DHT22;59997;53.300;-6.260;2022-11-20T14:39:12;8.35;71.80
71942;DHT22;59997;53.300;-6.260;2022-11-20T14:41:50;8.26;73.28
71942;DHT22;59997;53.300;-6.260;2022-11-20T14:44:16;8.23;73.68
71942;DHT22;59997;53.300;-6.260;2022-11-20T14:46:43;8.17;74.29
71942;DHT22;59997;53.300;-6.260;2022-11-20T14:49:09;8.17;74.06
71942;DHT22;59997;53.300;-6.260;2022-11-20T14:51:37;8.17;74.09
71942;DHT22;59997;53.300;-6.260;2022-11-20T14:54:19;8.14;74.36
71942;DHT22;59997;53.300;-6.260;2022-11-20T14:57:21;8.00;75.14
71942;DHT22;59997;53.300;-6.260;2022-11-20T14:59:47;8.06;75.65
71942;DHT22;59997;53.300;-6.260;2022-11-20T15:02:12;7.92;76.60
71942;DHT22;59997;53.300;-6.260;2022-11-20T15:04:57;7.79;77.65
71942;DHT22;59997;53.300;-6.260;2022-11-20T15:07:35;7.72;78.44
71942;DHT22;59997;53.300;-6.260;2022-11-20T15:10:04;7.72;78.66
71942;DHT22;59997;53.300;-6.260;2022-11-20T15:12:31;7.67;79.03
71942;DHT22;59997;53.300;-6.260;2022-11-20T15:14:58;7.62;78.68
71942;DHT22;59997;53.300;-6.260;2022-11-20T15:17:23;7.64;78.56
71942;DHT22;59997;53.300;-6.260;2022-11-20T15:19:49;7.57;78.87
71942;DHT22;59997;53.300;-6.260;2022-11-20T15:22:15;7.52;79.20
71942;DHT22;59997;53.300;-6.260;2022-11-20T15:24:44;7.47;79.40
71942;DHT22;59997;53.300;-6.260;2022-11-20T15:27:10;7.43;79.68
71942;DHT22;59997;53.300;-6.260;2022-11-20T15:29:36;7.33;79.81
71942;DHT22;59997;53.300;-6.260;2022-11-20T15:32:02;7.23;79.85
71942;DHT22;59997;53.300;-6.260;2022-11-20T15:34:27;7.26;79.66
71942;DHT22;59997;53.300;-6.260;2022-11-20T15:36:53;7.17;79.83
71942;DHT22;59997;53.300;-6.260;2022-11-20T15:39:20;7.03;80.26
71942;DHT22;59997;53.300;-6.260;2022-11-20T15:41:46;6.92;80.64
71942;DHT22;59997;53.300;-6.260;2022-11-20T15:44:11;6.89;80.75
71942;DHT22;59997;53.300;-6.260;2022-11-20T15:46:39;6.98;80.41
71942;DHT22;59997;53.300;-6.260;2022-11-20T15:49:12;7.03;79.74
71942;DHT22;59997;53.300;-6.260;2022-11-20T15:51:41;6.98;80.04
71942;DHT22;59997;53.300;-6.260;2022-11-20T15:54:12;6.74;80.92
71942;DHT22;59997;53.300;-6.260;2022-11-20T15:56:38;6.70;80.93
71942;DHT22;59997;53.300;-6.260;2022-11-20T15:59:03;6.68;80.89
71942;DHT22;59997;53.300;-6.260;2022-11-20T16:01:29;6.61;81.11
71942;DHT22;59997;53.300;-6.260;2022-11-20T16:03:54;6.48;81.41
71942;DHT22;59997;53.300;-6.260;2022-11-20T16:06:20;6.39;81.79
71942;DHT22;59997;53.300;-6.260;2022-11-20T16:08:45;6.28;82.13
71942;DHT22;59997;53.300;-6.260;2022-11-20T16:11:16;6.39;81.94
71942;DHT22;59997;53.300;-6.260;2022-11-20T16:13:42;6.46;81.80
71942;DHT22;59997;53.300;-6.260;2022-11-20T16:16:34;6.43;81.81
71942;DHT22;59997;53.300;-6.260;2022-11-20T16:19:00;6.36;81.97
71942;DHT22;59997;53.300;-6.260;2022-11-20T16:21:27;6.33;82.15
71942;DHT22;59997;53.300;-6.260;2022-11-20T16:23:57;6.29;82.29
71942;DHT22;59997;53.300;-6.260;2022-11-20T16:26:23;6.23;82.46
71942;DHT22;59997;53.300;-6.260;2022-11-20T16:28:49;6.09;82.90
71942;DHT22;59997;53.300;-6.260;2022-11-20T16:31:16;6.02;83.18
71942;DHT22;59997;53.300;-6.260;2022-11-20T16:33:43;6.11;82.92
71942;DHT22;59997;53.300;-6.260;2022-11-20T16:36:13;6.11;82.77
71942;DHT22;59997;53.300;-6.260;2022-11-20T16:38:39;5.98;83.26
71942;DHT22;59997;53.300;-6.260;2022-11-20T16:41:06;6.01;83.59
71942;DHT22;59997;53.300;-6.260;2022-11-20T16:43:31;5.98;83.58
71942;DHT22;59997;53.300;-6.260;2022-11-20T16:45:57;5.85;83.98
71942;DHT22;59997;53.300;-6.260;2022-11-20T16:48:22;5.78;84.31
71942;DHT22;59997;53.300;-6.260;2022-11-20T16:50:50;6.01;84.08
71942;DHT22;59997;53.300;-6.260;2022-11-20T16:53:17;5.97;83.91
71942;DHT22;59997;53.300;-6.260;2022-11-20T16:55:43;5.81;84.32
71942;DHT22;59997;53.300;-6.260;2022-11-20T16:58:09;5.84;84.41
71942;DHT22;59997;53.300;-6.260;2022-11-20T17:00:38;5.87;84.35
71942;DHT22;59997;53.300;-6.260;2022-11-20T17:03:05;5.91;84.26
71942;DHT22;59997;53.300;-6.260;2022-11-20T17:05:31;5.94;84.18
71942;DHT22;59997;53.300;-6.260;2022-11-20T17:07:57;6.06;83.73
71942;DHT22;59997;53.300;-6.260;2022-11-20T17:10:22;6.20;83.39